createdAt,value
2017-12-23T00:00:03.491Z,11.65
2017-12-23T00:00:36.827Z,17.45
2017-12-23T00:01:10.487Z,19.98
2017-12-23T00:01:44.185Z,15.85
2017-12-23T00:02:17.855Z,17.02
2017-12-23T00:02:51.520Z,30.00
2017-12-23T00:03:25.187Z,17.05
2017-12-23T00:03:58.857Z,12.50
2017-12-23T00:04:32.534Z,12.82
2017-12-23T00:05:06.209Z,16.60
2017-12-23T00:05:39.902Z,16.80
2017-12-23T00:06:13.581Z,21.90
2017-12-23T00:06:47.578Z,11.85
2017-12-23T00:07:21.240Z,14.35
2017-12-23T00:07:55.667Z,11.80
2017-12-23T00:08:29.494Z,18.40
2017-12-23T00:09:02.987Z,12.70
2017-12-23T00:09:36.647Z,13.50
2017-12-23T00:10:09.982Z,13.57
2017-12-23T00:10:44.474Z,15.48
2017-12-23T00:11:18.141Z,11.05
2017-12-23T00:11:51.839Z,13.43
2017-12-23T00:12:25.594Z,13.15
2017-12-23T00:12:59.262Z,18.45
2017-12-23T00:13:33.747Z,19.90
2017-12-23T00:14:07.406Z,14.30
2017-12-23T00:14:41.065Z,15.18
2017-12-23T00:15:14.747Z,11.05
2017-12-23T00:15:49.273Z,16.85
2017-12-23T00:16:22.935Z,15.25
2017-12-23T00:16:57.729Z,9.95
2017-12-23T00:17:32.186Z,11.52
2017-12-23T00:18:06.002Z,17.58
2017-12-23T00:18:39.662Z,14.35
2017-12-23T00:19:13.400Z,11.18
2017-12-23T00:19:47.849Z,12.05
2017-12-23T00:20:21.506Z,13.00
2017-12-23T00:20:55.938Z,17.40
2017-12-23T00:21:29.606Z,14.07
2017-12-23T00:22:03.720Z,17.15
2017-12-23T00:22:37.381Z,9.27
2017-12-23T00:23:11.039Z,12.90
2017-12-23T00:23:44.727Z,15.45
2017-12-23T00:24:18.385Z,15.77
2017-12-23T00:24:52.250Z,13.18
2017-12-23T00:25:26.669Z,20.42
2017-12-23T00:26:01.157Z,9.70
2017-12-23T00:26:34.802Z,8.52
2017-12-23T00:27:08.490Z,14.95
2017-12-23T00:27:42.145Z,11.27
2017-12-23T00:28:16.573Z,13.60
2017-12-23T00:28:50.237Z,14.02
2017-12-23T00:29:24.649Z,10.95
2017-12-23T00:29:58.307Z,19.30
2017-12-23T00:30:32.024Z,12.82
2017-12-23T00:31:05.818Z,10.75
2017-12-23T00:31:40.248Z,11.10
2017-12-23T00:32:13.985Z,20.60
2017-12-23T00:32:47.662Z,12.65
2017-12-23T00:33:21.349Z,20.12
2017-12-23T00:33:55.020Z,13.95
2017-12-23T00:34:32.008Z,13.98
2017-12-23T00:35:05.663Z,11.38
2017-12-23T00:35:39.329Z,13.52
2017-12-23T00:36:13.759Z,11.05
2017-12-23T00:36:47.426Z,15.30
2017-12-23T00:37:21.885Z,15.10
2017-12-23T00:37:55.550Z,11.75
2017-12-23T00:38:29.209Z,10.85
2017-12-23T00:39:03.115Z,10.27
2017-12-23T00:39:37.543Z,11.25
2017-12-23T00:40:11.210Z,11.23
2017-12-23T00:40:45.640Z,15.13
2017-12-23T00:41:19.302Z,14.32
2017-12-23T00:41:53.714Z,16.05
2017-12-23T00:42:28.167Z,15.95
2017-12-23T00:43:01.832Z,12.23
2017-12-23T00:43:35.501Z,10.70
2017-12-23T00:44:09.919Z,10.90
2017-12-23T00:44:43.570Z,13.50
2017-12-23T00:45:17.226Z,13.88
2017-12-23T00:45:50.891Z,11.05
2017-12-23T00:46:24.545Z,10.50
2017-12-23T00:46:58.198Z,15.52
2017-12-23T00:47:31.879Z,12.27
2017-12-23T00:48:05.533Z,10.40
2017-12-23T00:48:39.954Z,14.30
2017-12-23T00:49:13.603Z,10.90
2017-12-23T00:49:47.256Z,7.93
2017-12-23T00:50:20.918Z,10.88
2017-12-23T00:50:54.600Z,12.80
2017-12-23T00:51:29.028Z,13.00
2017-12-23T00:52:02.695Z,10.70
2017-12-23T00:52:37.137Z,10.07
2017-12-23T00:53:10.791Z,11.10
2017-12-23T00:53:45.268Z,9.55
2017-12-23T00:54:19.182Z,9.18
2017-12-23T00:54:53.598Z,9.85
2017-12-23T00:55:28.018Z,10.80
2017-12-23T00:56:01.675Z,8.63
2017-12-23T00:56:35.335Z,19.25
2017-12-23T00:57:09.008Z,13.70
2017-12-23T00:57:42.685Z,10.15
2017-12-23T00:58:16.343Z,12.75
2017-12-23T00:58:49.994Z,18.73
2017-12-23T00:59:23.649Z,15.23
2017-12-23T01:00:38.824Z,15.88
2017-12-23T01:01:12.501Z,22.83
2017-12-23T01:01:46.150Z,8.02
2017-12-23T01:02:19.798Z,9.73
2017-12-23T01:02:53.495Z,12.98
2017-12-23T01:03:27.151Z,15.98
2017-12-23T01:04:01.585Z,13.25
2017-12-23T01:04:35.242Z,13.45
2017-12-23T01:05:09.657Z,13.23
2017-12-23T01:05:44.087Z,18.85
2017-12-23T01:06:17.746Z,18.75
2017-12-23T01:06:52.171Z,8.13
2017-12-23T01:07:25.843Z,21.40
2017-12-23T01:08:00.283Z,11.05
2017-12-23T01:08:33.955Z,12.43
2017-12-23T01:09:07.602Z,12.57
2017-12-23T01:09:41.636Z,10.88
2017-12-23T01:10:15.304Z,9.27
2017-12-23T01:10:48.970Z,7.60
2017-12-23T01:11:22.622Z,7.72
2017-12-23T01:11:56.282Z,13.10
2017-12-23T01:12:30.710Z,16.45
2017-12-23T01:13:05.236Z,14.07
2017-12-23T01:13:38.890Z,11.05
2017-12-23T01:14:13.305Z,10.98
2017-12-23T01:14:47.729Z,11.30
2017-12-23T01:15:21.388Z,10.95
2017-12-23T01:15:55.846Z,9.05
2017-12-23T01:16:29.516Z,21.62
2017-12-23T01:17:03.171Z,14.38
2017-12-23T01:17:36.823Z,13.98
2017-12-23T01:18:10.861Z,14.95
2017-12-23T01:18:45.957Z,13.65
2017-12-23T01:19:19.615Z,9.57
2017-12-23T01:19:53.475Z,13.73
2017-12-23T01:20:27.894Z,7.65
2017-12-23T01:21:01.601Z,18.83
2017-12-23T01:21:35.399Z,7.80
2017-12-23T01:22:09.064Z,12.93
2017-12-23T01:22:43.494Z,10.93
2017-12-23T01:23:17.429Z,10.52
2017-12-23T01:23:51.098Z,8.10
2017-12-23T01:24:24.774Z,12.35
2017-12-23T01:24:58.442Z,16.58
2017-12-23T01:25:32.211Z,13.57
2017-12-23T01:26:06.640Z,12.73
2017-12-23T01:26:40.315Z,17.92
2017-12-23T01:27:14.735Z,9.05
2017-12-23T01:27:48.390Z,9.10
2017-12-23T01:28:22.063Z,10.35
2017-12-23T01:28:55.743Z,14.95
2017-12-23T01:29:29.402Z,14.15
2017-12-23T01:30:03.066Z,13.00
2017-12-23T01:30:37.483Z,7.35
2017-12-23T01:31:11.897Z,16.17
2017-12-23T01:31:45.566Z,12.63
2017-12-23T01:32:19.214Z,10.65
2017-12-23T01:32:52.886Z,13.05
2017-12-23T01:33:26.558Z,13.82
2017-12-23T01:34:00.206Z,8.68
2017-12-23T01:34:33.855Z,13.13
2017-12-23T01:35:07.524Z,15.20
2017-12-23T01:35:41.956Z,12.68
2017-12-23T01:36:15.613Z,10.57
2017-12-23T01:36:50.041Z,13.80
2017-12-23T01:37:23.694Z,18.02
2017-12-23T01:37:57.361Z,12.57
2017-12-23T01:38:31.043Z,12.70
2017-12-23T01:39:03.857Z,17.02
2017-12-23T01:39:38.282Z,12.55
2017-12-23T01:40:11.954Z,13.20
2017-12-23T01:40:45.651Z,18.35
2017-12-23T01:41:20.063Z,10.35
2017-12-23T01:41:53.714Z,13.25
2017-12-23T01:42:27.358Z,9.73
2017-12-23T01:43:01.019Z,10.27
2017-12-23T01:43:35.477Z,11.52
2017-12-23T01:44:09.150Z,10.73
2017-12-23T01:44:43.119Z,11.15
2017-12-23T01:45:16.787Z,13.07
2017-12-23T01:45:50.450Z,15.73
2017-12-23T01:46:24.105Z,11.10
2017-12-23T01:46:57.758Z,10.52
2017-12-23T01:47:31.414Z,12.32
2017-12-23T01:48:05.069Z,16.00
2017-12-23T01:48:38.756Z,16.40
2017-12-23T01:49:12.430Z,17.42
2017-12-23T01:49:46.874Z,11.35
2017-12-23T01:50:20.532Z,12.10
2017-12-23T01:50:54.955Z,14.13
2017-12-23T01:51:28.610Z,14.98
2017-12-23T01:52:03.031Z,8.00
2017-12-23T01:52:37.447Z,8.93
2017-12-23T01:53:11.109Z,15.25
2017-12-23T01:53:44.815Z,9.00
2017-12-23T01:54:19.240Z,11.82
2017-12-23T01:54:53.469Z,13.90
2017-12-23T01:55:27.157Z,15.98
2017-12-23T01:56:00.826Z,13.88
2017-12-23T01:56:34.513Z,10.07
2017-12-23T01:57:08.171Z,9.90
2017-12-23T01:57:41.822Z,6.18
2017-12-23T01:58:15.482Z,8.90
2017-12-23T01:58:49.187Z,17.73
2017-12-23T01:59:22.837Z,15.35
2017-12-23T01:59:57.270Z,11.12
2017-12-23T02:00:30.929Z,12.70
2017-12-23T02:01:05.342Z,9.32
2017-12-23T02:01:39.752Z,9.63
2017-12-23T02:02:14.172Z,9.75
2017-12-23T02:02:47.821Z,11.35
2017-12-23T02:03:21.472Z,13.88
2017-12-23T02:03:55.157Z,9.48
2017-12-23T02:04:28.809Z,13.20
2017-12-23T02:05:03.238Z,13.52
2017-12-23T02:05:36.897Z,5.15
2017-12-23T02:06:10.550Z,12.60
2017-12-23T02:06:44.215Z,16.17
2017-12-23T02:07:17.870Z,12.50
2017-12-23T02:07:52.296Z,11.73
2017-12-23T02:08:25.949Z,14.50
2017-12-23T02:08:59.618Z,7.37
2017-12-23T02:09:33.288Z,8.55
2017-12-23T02:10:06.947Z,10.15
2017-12-23T02:10:41.411Z,8.35
2017-12-23T02:11:15.072Z,14.85
2017-12-23T02:11:48.730Z,16.37
2017-12-23T02:12:23.154Z,13.68
2017-12-23T02:12:56.827Z,13.02
2017-12-23T02:13:31.252Z,15.23
2017-12-23T02:14:05.197Z,10.70
2017-12-23T02:14:38.857Z,12.90
2017-12-23T02:15:12.511Z,18.00
2017-12-23T02:15:46.950Z,10.02
2017-12-23T02:16:20.622Z,13.35
2017-12-23T02:16:54.290Z,17.02
2017-12-23T02:17:28.751Z,10.95
2017-12-23T02:18:02.459Z,14.43
2017-12-23T02:18:36.114Z,13.43
2017-12-23T02:19:09.799Z,16.98
2017-12-23T02:19:44.230Z,10.27
2017-12-23T02:20:17.899Z,14.98
2017-12-23T02:20:51.558Z,13.23
2017-12-23T02:21:25.975Z,17.27
2017-12-23T02:21:59.654Z,21.50
2017-12-23T02:22:33.334Z,19.48
2017-12-23T02:23:07.765Z,15.27
2017-12-23T02:23:41.426Z,18.52
2017-12-23T02:24:15.108Z,11.02
2017-12-23T02:24:48.766Z,19.15
2017-12-23T02:25:22.435Z,15.88
2017-12-23T02:25:56.095Z,19.12
2017-12-23T02:26:30.515Z,16.33
2017-12-23T02:27:04.181Z,12.57
2017-12-23T02:27:38.610Z,18.30
2017-12-23T02:28:12.261Z,15.38
2017-12-23T02:28:45.923Z,14.50
2017-12-23T02:29:19.622Z,21.87
2017-12-23T02:29:53.296Z,10.88
2017-12-23T02:30:26.969Z,17.35
2017-12-23T02:31:00.619Z,13.93
2017-12-23T02:31:34.270Z,18.23
2017-12-23T02:32:07.947Z,18.98
2017-12-23T02:32:41.603Z,16.05
2017-12-23T02:33:16.039Z,17.85
2017-12-23T02:33:49.723Z,11.63
2017-12-23T02:34:23.426Z,16.23
2017-12-23T02:34:57.100Z,14.68
2017-12-23T02:35:30.746Z,13.68
2017-12-23T02:36:04.422Z,15.68
2017-12-23T02:36:38.093Z,16.33
2017-12-23T02:37:11.778Z,17.10
2017-12-23T02:37:45.440Z,16.17
2017-12-23T02:38:19.113Z,15.48
2017-12-23T02:38:53.539Z,14.75
2017-12-23T02:39:27.232Z,13.88
2017-12-23T02:40:00.893Z,14.68
2017-12-23T02:40:35.342Z,17.62
2017-12-23T02:41:09.046Z,16.10
2017-12-23T02:41:42.705Z,15.50
2017-12-23T02:42:16.363Z,16.70
2017-12-23T02:42:50.022Z,16.65
2017-12-23T02:43:23.686Z,19.40
2017-12-23T02:43:57.347Z,13.07
2017-12-23T02:44:31.797Z,15.40
2017-12-23T02:45:05.478Z,21.67
2017-12-23T02:45:39.134Z,19.08
2017-12-23T02:46:13.553Z,19.37
2017-12-23T02:46:47.213Z,26.23
2017-12-23T02:47:20.882Z,16.92
2017-12-23T02:47:54.538Z,16.05
2017-12-23T02:48:28.199Z,16.42
2017-12-23T02:49:02.609Z,13.73
2017-12-23T02:49:37.420Z,13.20
2017-12-23T02:50:11.078Z,18.02
2017-12-23T02:50:44.744Z,15.68
2017-12-23T02:51:18.425Z,15.45
2017-12-23T02:51:52.082Z,17.55
2017-12-23T02:52:26.525Z,16.00
2017-12-23T02:53:00.186Z,17.58
2017-12-23T02:53:33.852Z,24.65
2017-12-23T02:54:08.276Z,12.25
2017-12-23T02:54:41.958Z,14.68
2017-12-23T02:55:16.386Z,25.60
2017-12-23T02:55:50.051Z,13.70
2017-12-23T02:56:24.482Z,19.87
2017-12-23T02:56:58.142Z,16.52
2017-12-23T02:57:32.566Z,17.60
2017-12-23T02:58:06.240Z,15.40
2017-12-23T02:58:40.671Z,17.90
2017-12-23T02:59:14.342Z,18.42
2017-12-23T02:59:49.161Z,18.98
2017-12-23T03:00:23.595Z,16.83
2017-12-23T03:00:57.262Z,15.05
2017-12-23T03:01:31.697Z,21.55
2017-12-23T03:02:05.381Z,16.30
2017-12-23T03:02:39.070Z,14.05
2017-12-23T03:03:12.726Z,23.80
2017-12-23T03:03:47.150Z,18.65
2017-12-23T03:04:20.830Z,15.52
2017-12-23T03:04:55.275Z,17.40
2017-12-23T03:05:29.027Z,14.27
2017-12-23T03:06:03.483Z,17.45
2017-12-23T03:06:37.144Z,16.83
2017-12-23T03:07:10.807Z,16.42
2017-12-23T03:07:45.254Z,17.90
2017-12-23T03:08:18.948Z,16.25
2017-12-23T03:08:52.615Z,17.85
2017-12-23T03:09:26.298Z,16.90
2017-12-23T03:10:00.762Z,16.55
2017-12-23T03:10:34.422Z,22.45
2017-12-23T03:11:08.111Z,16.08
2017-12-23T03:11:41.806Z,18.83
2017-12-23T03:12:15.481Z,16.87
2017-12-23T03:12:49.156Z,15.85
2017-12-23T03:13:22.839Z,19.48
2017-12-23T03:13:57.265Z,15.55
2017-12-23T03:14:30.924Z,12.43
2017-12-23T03:15:05.377Z,20.48
2017-12-23T03:15:39.053Z,16.33
2017-12-23T03:16:12.752Z,15.88
2017-12-23T03:16:46.449Z,16.60
2017-12-23T03:17:20.154Z,19.90
2017-12-23T03:17:53.838Z,14.90
2017-12-23T03:18:27.494Z,17.27
2017-12-23T03:19:01.160Z,21.37
2017-12-23T03:19:35.609Z,16.17
2017-12-23T03:20:09.665Z,14.40
2017-12-23T03:20:44.084Z,19.40
2017-12-23T03:21:18.505Z,17.45
2017-12-23T03:21:52.167Z,16.85
2017-12-23T03:22:25.815Z,15.57
2017-12-23T03:22:59.528Z,19.77
2017-12-23T03:23:33.196Z,17.02
2017-12-23T03:24:06.858Z,22.83
2017-12-23T03:24:40.510Z,15.95
2017-12-23T03:25:14.202Z,19.37
2017-12-23T03:25:47.863Z,19.35
2017-12-23T03:26:21.545Z,17.50
2017-12-23T03:26:55.218Z,18.80
2017-12-23T03:27:28.870Z,21.25
2017-12-23T03:28:03.302Z,17.30
2017-12-23T03:28:36.973Z,15.90
2017-12-23T03:29:11.405Z,19.60
2017-12-23T03:29:45.077Z,16.40
2017-12-23T03:30:18.774Z,16.40
2017-12-23T03:30:52.451Z,18.12
2017-12-23T03:31:26.112Z,16.08
2017-12-23T03:31:59.790Z,20.20
2017-12-23T03:32:33.133Z,17.77
2017-12-23T03:33:06.783Z,15.32
2017-12-23T03:33:40.438Z,16.40
2017-12-23T03:34:14.105Z,16.73
2017-12-23T03:34:47.765Z,14.10
2017-12-23T03:35:21.474Z,16.80
2017-12-23T03:35:55.130Z,17.77
2017-12-23T03:36:28.125Z,15.27
2017-12-23T03:37:01.792Z,22.55
2017-12-23T03:37:36.226Z,15.07
2017-12-23T03:38:09.889Z,18.98
2017-12-23T03:38:44.321Z,20.33
2017-12-23T03:39:17.650Z,20.88
2017-12-23T03:39:51.331Z,15.18
2017-12-23T03:40:25.380Z,22.10
2017-12-23T03:40:59.054Z,15.98
2017-12-23T03:41:33.487Z,18.05
2017-12-23T03:42:07.164Z,16.65
2017-12-23T03:42:41.588Z,19.02
2017-12-23T03:43:15.250Z,19.10
2017-12-23T03:43:49.757Z,18.37
2017-12-23T03:44:24.191Z,18.45
2017-12-23T03:44:57.853Z,18.08
2017-12-23T03:45:31.537Z,12.60
2017-12-23T03:46:05.198Z,14.57
2017-12-23T03:46:38.857Z,15.95
2017-12-23T03:47:12.526Z,17.58
2017-12-23T03:47:46.947Z,21.23
2017-12-23T03:48:20.621Z,19.10
2017-12-23T03:48:55.048Z,18.05
2017-12-23T03:49:28.702Z,14.35
2017-12-23T03:50:03.139Z,15.88
2017-12-23T03:50:37.106Z,15.23
2017-12-23T03:51:11.529Z,15.60
2017-12-23T03:51:45.958Z,17.02
2017-12-23T03:52:19.629Z,17.12
2017-12-23T03:52:53.296Z,19.27
2017-12-23T03:53:26.960Z,19.48
2017-12-23T03:54:00.614Z,13.27
2017-12-23T03:54:34.294Z,16.40
2017-12-23T03:55:07.970Z,25.95
2017-12-23T03:55:41.685Z,20.12
2017-12-23T03:56:15.362Z,19.77
2017-12-23T03:56:49.023Z,19.33
2017-12-23T03:57:23.453Z,18.75
2017-12-23T03:57:57.122Z,19.27
2017-12-23T03:58:31.559Z,21.40
2017-12-23T03:59:05.246Z,20.08
2017-12-23T03:59:38.918Z,18.23
2017-12-23T04:00:13.359Z,20.23
2017-12-23T04:00:47.058Z,22.08
2017-12-23T04:01:20.774Z,20.37
2017-12-23T04:01:54.448Z,20.55
2017-12-23T04:02:28.110Z,18.52
2017-12-23T04:03:01.789Z,18.95
2017-12-23T04:03:35.453Z,17.50
2017-12-23T04:04:09.878Z,18.62
2017-12-23T04:04:43.550Z,20.52
2017-12-23T04:05:17.983Z,21.52
2017-12-23T04:05:51.674Z,16.45
2017-12-23T04:06:25.334Z,17.20
2017-12-23T04:06:59.759Z,16.95
2017-12-23T04:07:33.425Z,18.62
2017-12-23T04:08:07.867Z,18.87
2017-12-23T04:08:41.537Z,18.48
2017-12-23T04:09:15.970Z,20.92
2017-12-23T04:09:49.636Z,17.02
2017-12-23T04:10:24.066Z,25.12
2017-12-23T04:10:58.024Z,20.35
2017-12-23T04:11:32.456Z,17.33
2017-12-23T04:12:06.128Z,20.00
2017-12-23T04:12:40.575Z,21.12
2017-12-23T04:13:14.242Z,22.95
2017-12-23T04:13:47.915Z,23.87
2017-12-23T04:14:22.349Z,20.73
2017-12-23T04:14:56.013Z,18.37
2017-12-23T04:15:30.457Z,23.50
2017-12-23T04:16:04.156Z,20.85
2017-12-23T04:16:37.833Z,17.83
2017-12-23T04:17:11.499Z,24.67
2017-12-23T04:17:45.170Z,23.20
2017-12-23T04:18:19.598Z,18.33
2017-12-23T04:18:53.265Z,23.17
2017-12-23T04:19:27.696Z,23.10
2017-12-23T04:20:01.353Z,21.65
2017-12-23T04:20:35.032Z,21.35
2017-12-23T04:21:08.726Z,22.17
2017-12-23T04:21:42.408Z,18.33
2017-12-23T04:22:16.080Z,20.80
2017-12-23T04:22:49.739Z,26.80
2017-12-23T04:23:23.418Z,22.55
2017-12-23T04:23:57.084Z,21.77
2017-12-23T04:24:30.884Z,21.55
2017-12-23T04:25:05.314Z,21.50
2017-12-23T04:25:38.985Z,20.08
2017-12-23T04:26:13.466Z,22.17
2017-12-23T04:26:47.124Z,21.55
2017-12-23T04:27:20.800Z,25.40
2017-12-23T04:27:54.469Z,21.05
2017-12-23T04:28:28.146Z,21.15
2017-12-23T04:29:02.573Z,26.02
2017-12-23T04:29:36.307Z,18.95
2017-12-23T04:30:10.156Z,24.08
2017-12-23T04:30:43.826Z,23.48
2017-12-23T04:31:18.278Z,19.85
2017-12-23T04:31:51.966Z,23.55
2017-12-23T04:32:25.630Z,22.27
2017-12-23T04:32:59.302Z,19.00
2017-12-23T04:33:33.914Z,23.90
2017-12-23T04:34:08.360Z,20.37
2017-12-23T04:34:42.022Z,22.20
2017-12-23T04:35:15.681Z,22.60
2017-12-23T04:35:49.359Z,20.00
2017-12-23T04:36:23.298Z,26.60
2017-12-23T04:36:57.002Z,24.12
2017-12-23T04:37:30.674Z,22.50
2017-12-23T04:38:04.339Z,21.40
2017-12-23T04:38:38.026Z,24.83
2017-12-23T04:39:11.708Z,23.65
2017-12-23T04:39:45.373Z,24.95
2017-12-23T04:40:19.049Z,24.25
2017-12-23T04:40:52.566Z,20.00
2017-12-23T04:41:26.263Z,21.33
2017-12-23T04:41:59.934Z,21.77
2017-12-23T04:42:33.618Z,21.25
2017-12-23T04:43:07.291Z,21.08
2017-12-23T04:43:41.046Z,21.23
2017-12-23T04:44:15.490Z,18.95
2017-12-23T04:44:49.156Z,22.52
2017-12-23T04:45:22.845Z,21.90
2017-12-23T04:45:56.531Z,22.20
2017-12-23T04:46:31.013Z,21.45
2017-12-23T04:47:04.676Z,22.45
2017-12-23T04:47:38.350Z,19.40
2017-12-23T04:48:12.017Z,19.10
2017-12-23T04:48:45.683Z,18.12
2017-12-23T04:49:20.117Z,24.45
2017-12-23T04:49:53.820Z,21.45
2017-12-23T04:50:27.484Z,21.05
2017-12-23T04:51:01.157Z,22.25
2017-12-23T04:51:35.606Z,23.40
2017-12-23T04:52:09.270Z,20.35
2017-12-23T04:52:43.715Z,21.77
2017-12-23T04:53:17.390Z,20.83
2017-12-23T04:53:51.144Z,22.98
2017-12-23T04:54:25.566Z,24.50
2017-12-23T04:54:59.227Z,20.77
2017-12-23T04:55:33.662Z,21.80
2017-12-23T04:56:07.349Z,22.50
2017-12-23T04:56:41.823Z,24.20
2017-12-23T04:57:15.481Z,22.58
2017-12-23T04:57:49.342Z,19.50
2017-12-23T04:58:23.021Z,22.17
2017-12-23T04:58:57.455Z,20.88
2017-12-23T04:59:31.153Z,21.30
2017-12-23T05:00:04.162Z,25.17
2017-12-23T05:00:37.836Z,18.23
2017-12-23T05:01:11.513Z,20.65
2017-12-23T05:01:45.577Z,23.27
2017-12-23T05:02:20.018Z,21.20
2017-12-23T05:02:53.689Z,19.62
2017-12-23T05:03:27.352Z,18.15
2017-12-23T05:04:01.798Z,24.55
2017-12-23T05:04:35.462Z,18.55
2017-12-23T05:05:09.151Z,19.05
2017-12-23T05:05:42.823Z,19.77
2017-12-23T05:06:17.267Z,20.55
2017-12-23T05:06:51.234Z,18.87
2017-12-23T05:07:25.667Z,20.77
2017-12-23T05:07:59.429Z,20.85
2017-12-23T05:08:33.854Z,20.70
2017-12-23T05:09:07.514Z,19.70
2017-12-23T05:09:41.190Z,19.20
2017-12-23T05:10:14.860Z,19.30
2017-12-23T05:10:48.539Z,22.27
2017-12-23T05:11:22.212Z,21.25
2017-12-23T05:11:55.912Z,20.20
2017-12-23T05:12:29.574Z,21.73
2017-12-23T05:13:04.022Z,17.75
2017-12-23T05:13:37.703Z,20.73
2017-12-23T05:14:11.388Z,18.12
2017-12-23T05:14:45.051Z,21.12
2017-12-23T05:15:19.534Z,20.75
2017-12-23T05:15:53.350Z,18.48
2017-12-23T05:16:27.789Z,18.60
2017-12-23T05:17:01.491Z,18.98
2017-12-23T05:17:35.163Z,20.83
2017-12-23T05:18:08.825Z,19.23
2017-12-23T05:18:43.261Z,17.85
2017-12-23T05:19:16.926Z,18.48
2017-12-23T05:19:50.595Z,19.45
2017-12-23T05:20:24.263Z,17.35
2017-12-23T05:20:57.938Z,20.00
2017-12-23T05:21:31.607Z,21.95
2017-12-23T05:22:05.575Z,19.33
2017-12-23T05:22:40.011Z,19.65
2017-12-23T05:23:13.679Z,18.37
2017-12-23T05:23:47.338Z,17.98
2017-12-23T05:24:21.776Z,20.40
2017-12-23T05:24:55.447Z,18.67
2017-12-23T05:25:29.918Z,17.95
2017-12-23T05:26:03.596Z,18.87
2017-12-23T05:26:37.269Z,20.85
2017-12-23T05:27:11.494Z,21.25
2017-12-23T05:27:45.162Z,20.50
2017-12-23T05:28:18.818Z,19.25
2017-12-23T05:28:53.260Z,20.88
2017-12-23T05:29:26.929Z,19.27
2017-12-23T05:30:00.602Z,18.35
2017-12-23T05:30:35.038Z,21.58
2017-12-23T05:31:08.706Z,19.25
2017-12-23T05:31:43.149Z,21.55
2017-12-23T05:32:17.208Z,25.10
2017-12-23T05:32:51.651Z,20.83
2017-12-23T05:33:25.315Z,25.15
2017-12-23T05:33:58.979Z,20.98
2017-12-23T05:34:32.665Z,22.17
2017-12-23T05:35:06.329Z,24.40
2017-12-23T05:35:40.008Z,20.85
2017-12-23T05:36:13.670Z,24.80
2017-12-23T05:36:47.340Z,21.30
2017-12-23T05:37:21.840Z,25.27
2017-12-23T05:37:55.503Z,24.12
2017-12-23T05:38:29.174Z,26.25
2017-12-23T05:39:02.871Z,23.85
2017-12-23T05:39:36.539Z,26.50
2017-12-23T05:40:10.210Z,23.48
2017-12-23T05:40:43.894Z,23.35
2017-12-23T05:41:18.322Z,24.00
2017-12-23T05:41:52.012Z,23.02
2017-12-23T05:42:25.705Z,24.85
2017-12-23T05:42:59.371Z,25.10
2017-12-23T05:43:33.028Z,26.17
2017-12-23T05:44:06.690Z,25.50
2017-12-23T05:44:40.355Z,22.80
2017-12-23T05:45:14.022Z,26.45
2017-12-23T05:45:48.455Z,29.37
2017-12-23T05:46:22.117Z,26.15
2017-12-23T05:46:56.544Z,27.02
2017-12-23T05:47:30.233Z,27.23
2017-12-23T05:48:03.891Z,26.58
2017-12-23T05:48:37.549Z,25.12
2017-12-23T05:49:11.227Z,25.42
2017-12-23T05:49:44.909Z,28.23
2017-12-23T05:50:18.574Z,27.55
2017-12-23T05:50:52.248Z,24.87
2017-12-23T05:51:26.696Z,24.70
2017-12-23T05:52:00.374Z,25.15
2017-12-23T05:52:34.083Z,28.55
2017-12-23T05:53:07.764Z,28.73
2017-12-23T05:53:41.426Z,26.58
2017-12-23T05:54:15.859Z,27.77
2017-12-23T05:54:49.521Z,27.65
2017-12-23T05:55:23.966Z,25.33
2017-12-23T05:55:57.621Z,27.55
2017-12-23T05:56:32.077Z,29.87
2017-12-23T05:57:05.747Z,29.95
2017-12-23T05:57:39.442Z,29.48
2017-12-23T05:58:13.111Z,28.42
2017-12-23T05:58:46.768Z,28.67
2017-12-23T05:59:21.204Z,29.42
2017-12-23T05:59:54.865Z,30.37
2017-12-23T06:00:29.293Z,33.22
2017-12-23T06:01:02.960Z,32.40
2017-12-23T06:01:36.631Z,27.80
2017-12-23T06:02:10.292Z,30.23
2017-12-23T06:02:43.991Z,31.05
2017-12-23T06:03:17.664Z,29.73
2017-12-23T06:03:51.321Z,28.90
2017-12-23T06:04:25.759Z,28.50
2017-12-23T06:04:59.416Z,32.05
2017-12-23T06:05:33.845Z,28.30
2017-12-23T06:06:07.510Z,29.98
2017-12-23T06:06:41.956Z,28.35
2017-12-23T06:07:15.609Z,26.02
2017-12-23T06:07:50.071Z,27.00
2017-12-23T06:08:23.795Z,29.37
2017-12-23T06:08:58.230Z,30.50
2017-12-23T06:09:31.893Z,30.02
2017-12-23T06:10:05.555Z,26.25
2017-12-23T06:10:39.220Z,30.10
2017-12-23T06:11:12.893Z,29.10
2017-12-23T06:11:46.553Z,28.52
2017-12-23T06:12:20.984Z,29.15
2017-12-23T06:12:54.675Z,27.27
2017-12-23T06:13:28.349Z,28.17
2017-12-23T06:14:02.844Z,30.62
2017-12-23T06:14:36.506Z,28.30
2017-12-23T06:15:10.162Z,29.52
2017-12-23T06:15:43.810Z,26.50
2017-12-23T06:16:17.475Z,29.87
2017-12-23T06:16:51.137Z,25.80
2017-12-23T06:17:24.794Z,26.08
2017-12-23T06:17:59.242Z,27.50
2017-12-23T06:18:32.914Z,26.48
2017-12-23T06:19:06.566Z,29.12
2017-12-23T06:19:40.233Z,30.02
2017-12-23T06:20:13.894Z,30.08
2017-12-23T06:20:47.570Z,28.17
2017-12-23T06:21:21.227Z,26.90
2017-12-23T06:21:55.646Z,24.80
2017-12-23T06:22:30.085Z,30.27
2017-12-23T06:23:04.037Z,30.98
2017-12-23T06:23:38.465Z,28.35
2017-12-23T06:24:12.135Z,29.98
2017-12-23T06:24:46.546Z,27.00
2017-12-23T06:25:20.977Z,29.48
2017-12-23T06:25:54.648Z,26.58
2017-12-23T06:26:28.353Z,27.15
2017-12-23T06:27:02.014Z,24.92
2017-12-23T06:27:36.434Z,31.02
2017-12-23T06:28:10.889Z,27.55
2017-12-23T06:28:44.562Z,29.98
2017-12-23T06:29:18.217Z,29.92
2017-12-23T06:29:52.647Z,28.08
2017-12-23T06:30:26.305Z,26.05
2017-12-23T06:31:00.727Z,30.80
2017-12-23T06:31:35.157Z,28.38
2017-12-23T06:32:08.818Z,31.42
2017-12-23T06:32:43.261Z,32.15
2017-12-23T06:33:16.951Z,29.92
2017-12-23T06:33:50.298Z,30.27
2017-12-23T06:34:24.725Z,27.98
2017-12-23T06:34:58.398Z,30.35
2017-12-23T06:35:32.099Z,31.20
2017-12-23T06:36:05.925Z,29.58
2017-12-23T06:36:39.587Z,27.92
2017-12-23T06:37:13.345Z,29.87
2017-12-23T06:37:47.786Z,29.48
2017-12-23T06:38:21.474Z,32.45
2017-12-23T06:38:55.198Z,32.33
2017-12-23T06:39:28.866Z,32.13
2017-12-23T06:40:02.540Z,30.50
2017-12-23T06:40:36.206Z,31.33
2017-12-23T06:41:10.649Z,30.65
2017-12-23T06:41:44.314Z,33.10
2017-12-23T06:42:18.745Z,30.00
2017-12-23T06:42:52.410Z,30.08
2017-12-23T06:43:26.861Z,31.52
2017-12-23T06:44:00.530Z,33.97
2017-12-23T06:44:34.194Z,28.35
2017-12-23T06:45:08.620Z,27.02
2017-12-23T06:45:42.277Z,32.03
2017-12-23T06:46:16.707Z,31.02
2017-12-23T06:46:50.374Z,32.50
2017-12-23T06:47:24.800Z,25.70
2017-12-23T06:47:58.471Z,28.60
2017-12-23T06:48:32.926Z,29.85
2017-12-23T06:49:06.590Z,31.15
2017-12-23T06:49:40.260Z,30.55
2017-12-23T06:50:14.690Z,25.95
2017-12-23T06:50:48.354Z,25.73
2017-12-23T06:51:22.791Z,29.50
2017-12-23T06:51:56.460Z,25.98
2017-12-23T06:52:30.906Z,28.25
2017-12-23T06:53:04.753Z,27.62
2017-12-23T06:53:39.569Z,27.08
2017-12-23T06:54:14.003Z,27.83
2017-12-23T06:54:47.653Z,29.77
2017-12-23T06:55:21.312Z,27.73
2017-12-23T06:55:54.965Z,25.73
2017-12-23T06:56:28.619Z,28.17
2017-12-23T06:57:02.281Z,26.62
2017-12-23T06:57:36.000Z,24.23
2017-12-23T06:58:09.666Z,26.27
2017-12-23T06:58:43.350Z,24.67
2017-12-23T06:59:17.014Z,30.58
2017-12-23T06:59:50.681Z,23.48
2017-12-23T07:00:25.112Z,25.58
2017-12-23T07:00:58.789Z,21.73
2017-12-23T07:01:32.454Z,23.00
2017-12-23T07:02:06.117Z,25.02
2017-12-23T07:02:39.774Z,25.77
2017-12-23T07:03:13.434Z,30.08
2017-12-23T07:03:47.891Z,24.63
2017-12-23T07:04:21.577Z,21.60
2017-12-23T07:04:55.253Z,24.15
2017-12-23T07:05:28.915Z,27.00
2017-12-23T07:06:02.583Z,20.33
2017-12-23T07:06:36.267Z,26.25
2017-12-23T07:07:09.926Z,28.05
2017-12-23T07:07:43.596Z,24.83
2017-12-23T07:08:17.285Z,24.17
2017-12-23T07:08:51.224Z,25.42
2017-12-23T07:09:24.890Z,24.63
2017-12-23T07:09:58.553Z,25.70
2017-12-23T07:10:32.214Z,23.58
2017-12-23T07:11:06.637Z,24.23
2017-12-23T07:11:40.305Z,26.73
2017-12-23T07:12:14.734Z,24.58
2017-12-23T07:12:48.402Z,25.33
2017-12-23T07:13:22.834Z,23.67
2017-12-23T07:13:56.538Z,22.55
2017-12-23T07:14:30.205Z,24.87
2017-12-23T07:15:03.882Z,23.08
2017-12-23T07:15:38.317Z,24.15
2017-12-23T07:16:11.978Z,23.70
2017-12-23T07:16:46.422Z,24.45
2017-12-23T07:17:20.112Z,23.80